Time;durP1;ratioP1;P1;durP2;ratioP2;P2;SDS_P1;SDS_P2;PMS_P1;PMS_P2;Temp;Humidity;BMP_temperature;BMP_pressure;BME280_temperature;BME280_humidity;BME280_pressure;Samples;Min_cycle;Max_cycle;Signal;HPM_P1;HPM_P2
2022/02/01 00:00:16;;;;;;;5.10;2.25;;;;;;;4.54;77.90;99927.00;1087216;54;20094;-76
2022/02/01 00:01:27;;;;;;;5.55;2.40;;;;;;;4.41;77.89;99927.03;1088069;39;20818;-76
2022/02/01 00:02:36;;;;;;;6.10;2.13;;;;;;;4.36;77.93;99934.44;1087418;54;20035;-76
2022/02/01 00:03:43;;;;;;;6.72;2.28;;;;;;;4.29;78.11;99923.44;1087272;54;20038;-77
2022/02/01 00:04:53;;;;;;;6.38;2.72;;;;;;;4.30;78.10;99927.75;1087326;54;20056;-78
2022/02/01 00:06:06;;;;;;;7.10;2.85;;;;;;;4.21;78.06;99921.31;1087050;54;20061;-77
2022/02/01 00:07:18;;;;;;;6.05;2.50;;;;;;;4.25;78.07;99921.13;1087215;54;20042;-76
2022/02/01 00:08:30;;;;;;;6.78;2.53;;;;;;;4.29;78.15;99930.53;1086765;54;20038;-76
2022/02/01 00:09:43;;;;;;;7.28;2.90;;;;;;;4.27;77.97;99929.78;1087048;54;20031;-77
2022/02/01 00:10:54;;;;;;;5.85;2.17;;;;;;;4.29;77.93;99927.88;1087346;54;20066;-79
2022/02/01 00:12:12;;;;;;;6.97;2.17;;;;;;;4.33;77.99;99930.19;1087246;54;20034;-77
2022/02/01 00:13:23;;;;;;;5.85;2.30;;;;;;;4.38;77.93;99929.88;1087382;54;20090;-76
2022/02/01 00:14:35;;;;;;;5.72;2.30;;;;;;;4.36;77.75;99918.53;1087533;46;20062;-75
2022/02/01 00:17:17;;;;;;;6.47;2.10;;;;;;;4.33;77.64;99929.38;1087368;54;20042;-76
2022/02/01 00:18:48;;;;;;;6.65;2.35;;;;;;;4.35;77.85;99924.78;1087160;54;20743;-77
2022/02/01 00:34:11;;;;;;;7.20;2.45;;;;;;;4.30;79.24;99951.56;1087231;54;20086;-75
2022/02/01 00:35:27;;;;;;;5.57;2.10;;;;;;;4.34;79.12;99954.88;1087279;54;20031;-78
2022/02/01 00:36:35;;;;;;;4.65;1.80;;;;;;;4.29;79.17;99949.03;1087528;54;20037;-76
2022/02/01 00:37:50;;;;;;;6.53;2.15;;;;;;;4.29;79.26;99954.34;1087017;54;20672;-75
2022/02/01 00:38:59;;;;;;;5.05;1.70;;;;;;;4.26;79.01;99951.91;1087337;54;20034;-77
2022/02/01 00:40:06;;;;;;;4.80;1.50;;;;;;;4.24;79.07;99957.31;1087280;54;20038;-74
2022/02/01 00:41:12;;;;;;;5.50;1.42;;;;;;;4.25;79.06;99961.66;1087529;54;20034;-74
2022/02/01 00:42:15;;;;;;;4.85;1.23;;;;;;;4.29;78.98;99957.84;1087122;54;20050;-76
2022/02/01 00:43:21;;;;;;;4.47;1.40;;;;;;;4.11;79.15;99962.59;1087330;54;20090;-76
2022/02/01 00:44:24;;;;;;;3.78;1.20;;;;;;;4.11;79.11;99962.59;1087804;46;20058;-75
2022/02/01 00:45:29;;;;;;;3.50;1.10;;;;;;;4.05;79.30;99968.31;1087426;47;20138;-75
2022/02/01 00:46:34;;;;;;;3.90;1.05;;;;;;;4.01;79.57;99974.75;1087492;54;20031;-76
2022/02/01 00:47:36;;;;;;;2.95;1.10;;;;;;;3.88;79.63;99978.22;1087280;54;20038;-76
2022/02/01 00:48:41;;;;;;;4.13;1.00;;;;;;;3.89;79.81;99992.31;1087717;46;20034;-74
2022/02/01 00:49:43;;;;;;;2.80;0.95;;;;;;;3.96;79.31;99988.31;1087456;54;20014;-76
2022/02/01 00:50:47;;;;;;;2.70;1.10;;;;;;;3.95;79.24;99988.41;1087568;54;20034;-75
2022/02/01 00:51:48;;;;;;;3.97;1.27;;;;;;;3.89;79.31;99990.50;1086761;54;20810;-75
2022/02/01 00:52:54;;;;;;;4.80;1.40;;;;;;;3.88;79.46;100001.19;1087420;54;20038;-75
2022/02/01 00:53:55;;;;;;;3.78;1.10;;;;;;;3.88;79.48;100011.78;1087230;54;20774;-74
2022/02/01 00:54:59;;;;;;;5.13;1.13;;;;;;;3.88;79.37;99999.38;1087382;54;20041;-76
2022/02/01 00:56:01;;;;;;;2.90;1.02;;;;;;;3.83;79.30;100012.09;1089326;39;20733;-75
2022/02/01 00:57:09;;;;;;;4.40;1.20;;;;;;;3.81;79.31;100006.03;1087306;54;20106;-75
2022/02/01 00:58:11;;;;;;;2.80;1.00;;;;;;;3.80;79.20;100003.50;1086968;54;20042;-76
2022/02/01 00:59:17;;;;;;;4.68;1.20;;;;;;;3.86;78.85;100006.59;1087334;54;20018;-78
2022/02/01 01:00:19;;;;;;;4.85;1.15;;;;;;;3.72;79.36;100010.16;1087381;54;20746;-76
2022/02/01 01:01:23;;;;;;;3.10;1.10;;;;;;;3.64;79.19;100017.72;1087561;46;20035;-76
2022/02/01 01:02:24;;;;;;;2.80;1.00;;;;;;;3.68;79.23;100023.69;1087248;54;20035;-75
2022/02/01 01:03:29;;;;;;;3.22;1.08;;;;;;;3.62;79.56;100026.72;1087491;54;20018;-76
2022/02/01 01:04:31;;;;;;;3.85;1.15;;;;;;;3.65;79.65;100034.47;1087274;54;20034;-76
2022/02/01 01:05:35;;;;;;;2.95;1.20;;;;;;;3.67;79.61;100017.53;1089427;39;20497;-76
2022/02/01 01:06:37;;;;;;;3.35;1.13;;;;;;;3.64;79.50;100025.66;1087348;54;20561;-76
2022/02/01 01:07:41;;;;;;;3.03;1.02;;;;;;;3.79;79.15;100023.81;1087261;54;20038;-74
2022/02/01 01:08:45;;;;;;;2.58;0.90;;;;;;;3.77;79.04;100033.66;1087119;54;20662;-76
2022/02/01 01:09:47;;;;;;;2.80;0.93;;;;;;;3.74;79.10;100032.03;1087107;54;20063;-75
2022/02/01 01:10:52;;;;;;;4.80;1.38;;;;;;;3.77;79.29;100038.09;1087378;54;20030;-75
2022/02/01 01:11:56;;;;;;;5.22;1.20;;;;;;;3.74;78.95;100045.25;1087046;54;20034;-75
2022/02/01 01:13:09;;;;;;;2.60;0.85;;;;;;;3.72;79.20;100038.38;1087390;54;20045;-75
2022/02/01 01:14:40;;;;;;;3.67;1.10;;;;;;;3.67;79.31;100033.41;1086952;54;20039;-76
2022/02/01 01:15:55;;;;;;;2.60;1.00;;;;;;;3.77;79.06;100038.94;1087329;54;20038;-75
2022/02/01 01:18:55;;;;;;;5.20;1.40;;;;;;;3.70;79.07;100038.50;1086921;54;20042;-74
2022/02/01 01:43:37;;;;;;;5.93;1.73;;;;;;;3.62;81.11;100063.72;1087240;54;20102;-74
2022/02/01 01:44:47;;;;;;;3.95;1.45;;;;;;;3.53;81.52;100071.31;1087180;54;20031;-76
2022/02/01 01:46:08;;;;;;;;;;;;;;;3.54;81.80;100066.91;1088049;46;20037;-75
2022/02/01 01:54:07;;;;;;;11.57;3.33;;;;;;;3.41;82.32;100088.81;1086948;54;20030;-75
2022/02/01 01:55:10;;;;;;;7.10;2.38;;;;;;;3.42;82.39;100087.88;1087131;54;20034;-75
2022/02/01 01:56:14;;;;;;;7.90;2.50;;;;;;;3.45;82.47;100089.47;1087082;54;20057;-74
2022/02/01 01:57:17;;;;;;;9.30;2.20;;;;;;;3.47;82.59;100094.66;1087075;54;20038;-73
2022/02/01 01:58:25;;;;;;;8.65;2.42;;;;;;;3.46;82.72;100091.16;1087222;54;20038;-75
2022/02/01 01:59:27;;;;;;;7.80;2.60;;;;;;;3.40;83.00;100089.75;1088866;46;20038;-74
2022/02/01 02:00:46;;;;;;;8.90;3.00;;;;;;;3.45;82.91;100093.91;1087150;54;20038;-74
2022/02/01 02:01:51;;;;;;;7.32;2.80;;;;;;;3.50;82.76;100095.28;1086861;54;20074;-75
2022/02/01 02:02:55;;;;;;;9.15;2.63;;;;;;;3.50;82.63;100095.28;1087443;47;20204;-75
2022/02/01 02:04:00;;;;;;;12.90;2.63;;;;;;;3.48;82.63;100091.91;1087155;54;20046;-74
2022/02/01 02:05:01;;;;;;;8.60;2.88;;;;;;;3.48;82.70;100084.00;1086952;54;20026;-74
2022/02/01 02:06:05;;;;;;;9.15;2.75;;;;;;;3.55;82.33;100082.66;1088848;46;20046;-75
2022/02/01 02:07:07;;;;;;;9.27;2.72;;;;;;;3.49;82.46;100088.34;1086637;54;20038;-75
2022/02/01 02:08:12;;;;;;;8.45;2.90;;;;;;;3.49;82.23;100090.97;1086913;54;20038;-75
2022/02/01 02:09:16;;;;;;;13.18;3.50;;;;;;;3.54;82.18;100080.94;1088376;39;20613;-76
2022/02/01 02:10:25;;;;;;;11.80;2.97;;;;;;;3.50;82.19;100078.59;1086575;54;20043;-76
2022/02/01 02:11:38;;;;;;;12.50;2.63;;;;;;;3.44;82.06;100077.19;1086668;54;20636;-75
2022/02/01 02:12:54;;;;;;;13.40;3.67;;;;;;;3.39;82.16;100087.22;1087784;46;20045;-75
2022/02/01 02:15:16;;;;;;;14.13;3.63;;;;;;;3.38;82.55;100075.78;1087060;54;20041;-75
2022/02/01 02:16:18;;;;;;;10.45;3.40;;;;;;;3.38;82.50;100074.94;1087266;54;20038;-75
2022/02/01 02:17:22;;;;;;;12.27;3.20;;;;;;;3.38;82.57;100072.31;1086637;54;20064;-76
2022/02/01 02:18:28;;;;;;;11.20;3.53;;;;;;;3.52;82.00;100087.28;1086919;54;20038;-76
2022/02/01 02:19:33;;;;;;;11.25;3.78;;;;;;;3.51;81.84;100098.81;1086815;54;20093;-75
2022/02/01 02:20:41;;;;;;;9.23;3.03;;;;;;;3.56;81.96;100105.50;1087185;54;20038;-74
2022/02/01 02:21:51;;;;;;;10.23;2.88;;;;;;;3.70;81.55;100112.53;1087174;54;20059;-74
2022/02/01 02:22:53;;;;;;;10.25;3.15;;;;;;;3.68;81.20;100114.44;1087199;54;20039;-75
2022/02/01 02:23:57;;;;;;;13.95;3.72;;;;;;;3.48;81.71;100114.84;1087074;54;20045;-75
2022/02/01 02:24:58;;;;;;;10.40;3.50;;;;;;;3.55;81.64;100119.66;1087214;54;20087;-75
2022/02/01 02:26:08;;;;;;;16.88;4.32;;;;;;;3.64;81.17;100112.06;1087065;54;20035;-75
2022/02/01 02:27:09;;;;;;;12.32;3.45;;;;;;;3.57;81.43;100120.41;1087362;54;20042;-75
2022/02/01 02:28:14;;;;;;;11.35;3.00;;;;;;;3.72;81.21;100117.72;1087350;54;20030;-75
2022/02/01 02:29:16;;;;;;;13.13;3.60;;;;;;;3.61;81.24;100112.25;1087496;54;20038;-75
2022/02/01 02:30:20;;;;;;;12.38;3.30;;;;;;;3.65;81.22;100113.78;1087389;54;20030;-74
2022/02/01 02:31:23;;;;;;;13.73;3.75;;;;;;;3.58;81.17;100124.75;1087953;39;20528;-76
2022/02/01 02:32:27;;;;;;;13.88;4.10;;;;;;;3.64;81.17;100125.28;1087341;54;20143;-74
2022/02/01 02:33:29;;;;;;;12.68;3.30;;;;;;;3.74;80.84;100124.59;1087183;54;20748;-75
2022/02/01 02:34:33;;;;;;;11.20;3.88;;;;;;;3.84;80.68;100124.88;1087338;54;20046;-74
2022/02/01 02:35:40;;;;;;;11.52;3.22;;;;;;;3.89;80.22;100121.91;1089273;39;20822;-75
2022/02/01 02:36:50;;;;;;;13.05;3.22;;;;;;;3.81;80.16;100126.88;1087476;54;20054;-76
2022/02/01 02:37:54;;;;;;;18.05;4.03;;;;;;;3.67;79.79;100122.47;1087305;54;20632;-75
2022/02/01 02:39:03;;;;;;;17.40;4.80;;;;;;;3.74;79.65;100121.13;1087414;54;20070;-74
2022/02/01 02:40:19;;;;;;;13.45;4.00;;;;;;;3.65;79.39;100137.56;1087400;54;20391;-76
2022/02/01 02:41:32;;;;;;;15.20;3.95;;;;;;;3.62;79.38;100141.28;1087333;54;20038;-75
2022/02/01 02:45:04;;;;;;;18.45;4.97;;;;;;;3.58;79.48;100148.56;1087417;54;20038;-75
2022/02/01 02:45:15;;;;;;;18.40;5.45;;;;;;;3.74;79.19;100143.09;1087437;54;20496;-75
2022/02/01 02:46:25;;;;;;;21.55;4.93;;;;;;;3.74;78.73;100151.03;1087385;54;20030;-75
2022/02/01 02:48:32;;;;;;;15.50;4.55;;;;;;;3.65;79.37;100159.56;1087655;54;20034;-76
2022/02/01 02:49:36;;;;;;;19.58;4.88;;;;;;;3.66;79.04;100165.72;1087309;54;20038;-75
2022/02/01 02:50:37;;;;;;;18.75;5.15;;;;;;;3.57;79.06;100159.19;1087863;54;20041;-75
2022/02/01 02:51:42;;;;;;;19.95;5.25;;;;;;;3.62;79.09;100157.13;1088788;46;20041;-75
2022/02/01 02:52:46;;;;;;;17.58;5.50;;;;;;;3.75;78.93;100154.56;1087957;54;20037;-75
2022/02/01 02:53:50;;;;;;;23.15;5.72;;;;;;;3.67;78.94;100162.13;1088034;54;20037;-75
2022/02/01 02:54:55;;;;;;;15.98;5.63;;;;;;;3.83;78.88;100154.91;1088033;54;20034;-76
2022/02/01 02:55:56;;;;;;;20.50;6.18;;;;;;;3.78;78.62;100149.03;1088128;39;20606;-75
2022/02/01 02:57:02;;;;;;;16.98;5.00;;;;;;;3.68;78.65;100153.25;1087936;54;20058;-75
2022/02/01 02:58:04;;;;;;;17.08;5.50;;;;;;;3.78;78.24;100156.13;1087978;54;20769;-76
2022/02/01 02:59:08;;;;;;;17.15;6.28;;;;;;;3.74;78.58;100160.78;1088023;54;20074;-75
2022/02/01 03:00:10;;;;;;;21.50;6.15;;;;;;;3.68;77.88;100142.69;1088142;39;20332;-75
2022/02/01 03:01:15;;;;;;;17.73;5.97;;;;;;;3.71;77.89;100147.75;1088049;54;20034;-76
2022/02/01 03:02:17;;;;;;;18.77;4.97;;;;;;;3.81;77.69;100142.72;1088811;46;20042;-75
2022/02/01 03:03:21;;;;;;;21.80;5.57;;;;;;;3.82;77.61;100137.34;1087982;54;20030;-75
2022/02/01 03:04:24;;;;;;;15.23;4.75;;;;;;;3.83;77.70;100144.31;1091281;39;20688;-75
2022/02/01 03:05:28;;;;;;;14.93;4.78;;;;;;;3.89;77.70;100153.66;1087813;54;20057;-75
2022/02/01 03:06:30;;;;;;;18.42;4.63;;;;;;;3.88;77.51;100146.66;1091404;39;20654;-75
2022/02/01 03:07:34;;;;;;;18.45;5.75;;;;;;;3.82;77.61;100147.91;1087947;54;20030;-75
2022/02/01 03:08:36;;;;;;;25.40;6.25;;;;;;;3.83;77.55;100154.03;1088040;54;20023;-75
2022/02/01 03:09:43;;;;;;;19.65;5.13;;;;;;;3.87;76.92;100161.69;1087901;54;20037;-75
2022/02/01 03:10:45;;;;;;;17.80;4.78;;;;;;;3.97;76.91;100167.22;1087966;54;20808;-75
2022/02/01 03:11:50;;;;;;;19.38;4.72;;;;;;;4.02;76.67;100165.13;1088030;54;20015;-75
2022/02/01 03:13:08;;;;;;;18.42;5.18;;;;;;;3.92;76.67;100157.91;1087975;54;20030;-74
2022/02/01 03:14:23;;;;;;;20.05;5.25;;;;;;;4.00;76.56;100160.88;1101357;31;20765;-75
2022/02/01 03:15:39;;;;;;;27.80;6.35;;;;;;;4.01;75.90;100162.59;1087971;54;20042;-76
2022/02/01 03:16:57;;;;;;;26.60;6.35;;;;;;;3.93;75.20;100159.59;1088019;54;20069;-75
2022/02/01 03:20:32;;;;;;;21.55;6.05;;;;;;;4.06;74.78;100161.34;1087967;54;20053;-75
2022/02/01 03:21:36;;;;;;;24.40;5.28;;;;;;;4.07;74.29;100167.47;1087507;54;20031;-76
2022/02/01 03:22:38;;;;;;;18.15;5.97;;;;;;;4.05;74.18;100166.75;1087532;54;20042;-74
2022/02/01 03:23:44;;;;;;;15.98;4.40;;;;;;;4.12;73.79;100169.81;1087593;54;20035;-76
2022/02/01 03:24:49;;;;;;;19.13;4.38;;;;;;;4.16;73.60;100161.56;1088669;46;20030;-77
2022/02/01 03:25:53;;;;;;;28.25;5.65;;;;;;;4.16;73.34;100164.22;1087667;54;20031;-76
2022/02/01 03:26:54;;;;;;;22.85;5.30;;;;;;;4.22;73.16;100166.50;1087893;54;20031;-75
2022/02/01 03:27:58;;;;;;;24.15;5.82;;;;;;;4.23;72.80;100172.63;1087813;54;20030;-76
2022/02/01 03:29:01;;;;;;;18.52;4.78;;;;;;;4.19;72.54;100182.56;1087831;54;20042;-75
2022/02/01 03:30:06;;;;;;;17.13;4.45;;;;;;;4.29;72.32;100176.66;1087774;54;20038;-76
2022/02/01 03:31:07;;;;;;;19.13;5.40;;;;;;;4.17;72.46;100165.09;1087825;54;20031;-75
2022/02/01 03:32:12;;;;;;;22.73;5.30;;;;;;;4.14;71.79;100168.78;1087796;54;20037;-76
2022/02/01 03:33:14;;;;;;;18.42;4.88;;;;;;;4.15;71.48;100170.50;1087778;54;20034;-75
2022/02/01 03:34:18;;;;;;;19.17;5.25;;;;;;;4.13;71.08;100163.56;1089568;46;20035;-75
2022/02/01 03:35:20;;;;;;;21.95;5.28;;;;;;;4.26;71.12;100171.56;1087872;54;20037;-75
2022/02/01 03:36:24;;;;;;;19.35;5.10;;;;;;;4.30;70.85;100175.72;1087820;54;20027;-76
2022/02/01 03:37:28;;;;;;;17.98;4.93;;;;;;;4.24;70.91;100182.25;1087727;54;20038;-75
2022/02/01 03:38:29;;;;;;;18.88;4.15;;;;;;;4.28;71.00;100183.75;1087788;54;20035;-76
2022/02/01 03:39:34;;;;;;;17.67;3.83;;;;;;;4.35;70.66;100186.84;1087995;54;20034;-75
2022/02/01 03:40:40;;;;;;;16.80;4.20;;;;;;;4.21;69.85;100193.03;1091433;39;20681;-76
2022/02/01 03:41:44;;;;;;;20.67;4.63;;;;;;;4.29;70.11;100192.53;1087766;54;20087;-75
2022/02/01 03:42:45;;;;;;;17.00;4.07;;;;;;;4.29;69.93;100193.41;1090403;46;20038;-76
2022/02/01 03:43:50;;;;;;;17.48;5.25;;;;;;;4.27;70.14;100195.31;1087995;54;20036;-76
2022/02/01 03:44:55;;;;;;;20.48;3.85;;;;;;;4.20;69.58;100188.72;1087945;54;20817;-75
2022/02/01 03:45:57;;;;;;;16.63;4.55;;;;;;;4.27;69.98;100194.44;1088651;39;20211;-75
2022/02/01 03:47:03;;;;;;;17.40;4.18;;;;;;;4.09;69.89;100185.91;1087956;54;20034;-76
2022/02/01 03:48:05;;;;;;;18.75;4.63;;;;;;;4.19;69.77;100187.84;1087555;54;20053;-75
2022/02/01 03:49:09;;;;;;;19.95;5.22;;;;;;;4.29;69.75;100187.25;1087382;54;20019;-76
2022/02/01 03:50:11;;;;;;;20.67;4.55;;;;;;;4.17;69.11;100183.63;1087956;54;20037;-75
2022/02/01 03:51:15;;;;;;;17.83;5.30;;;;;;;4.25;69.07;100170.72;1087948;54;20030;-75
2022/02/01 03:52:19;;;;;;;19.48;3.90;;;;;;;4.32;69.01;100169.34;1088367;46;20023;-75
2022/02/01 03:53:21;;;;;;;13.88;3.85;;;;;;;4.27;68.50;100179.41;1087944;54;20029;-75
2022/02/01 03:54:25;;;;;;;17.30;4.28;;;;;;;4.27;68.28;100181.19;1087965;54;20019;-75
2022/02/01 03:55:26;;;;;;;14.48;4.10;;;;;;;4.14;68.18;100187.31;1087929;54;20018;-75
2022/02/01 03:56:34;;;;;;;16.55;4.05;;;;;;;4.24;67.88;100197.31;1087842;54;20041;-75
2022/02/01 03:57:35;;;;;;;19.17;4.80;;;;;;;4.12;68.16;100202.44;1087756;54;20061;-75
2022/02/01 03:58:39;;;;;;;24.25;4.68;;;;;;;4.14;68.37;100202.31;1087935;54;20019;-75
2022/02/01 03:59:43;;;;;;;17.75;3.95;;;;;;;4.11;68.00;100215.78;1087946;54;20765;-75
2022/02/01 04:00:47;;;;;;;12.98;3.92;;;;;;;4.17;67.94;100225.97;1088282;46;20030;-76
2022/02/01 04:01:50;;;;;;;17.00;4.00;;;;;;;4.09;67.56;100225.59;1087636;54;20030;-75
2022/02/01 04:02:54;;;;;;;17.48;3.78;;;;;;;4.12;67.47;100215.66;1087914;54;20037;-75
2022/02/01 04:03:58;;;;;;;14.05;3.53;;;;;;;4.27;67.39;100220.91;1087915;54;20034;-75
2022/02/01 04:05:00;;;;;;;15.57;4.20;;;;;;;4.24;67.06;100211.38;1087864;54;20034;-75
2022/02/01 04:06:04;;;;;;;19.65;4.10;;;;;;;4.14;66.18;100208.50;1087912;54;20018;-75
2022/02/01 04:07:10;;;;;;;17.75;4.13;;;;;;;4.15;66.40;100225.19;1087883;54;20034;-75
2022/02/01 04:08:13;;;;;;;13.73;3.20;;;;;;;4.20;66.20;100229.25;1087960;54;20034;-75
2022/02/01 04:09:17;;;;;;;15.13;3.65;;;;;;;4.11;65.69;100226.34;1087994;54;20037;-75
2022/02/01 04:10:20;;;;;;;14.02;4.20;;;;;;;3.94;65.10;100236.19;1087846;54;20039;-75
2022/02/01 04:11:24;;;;;;;13.00;3.45;;;;;;;3.91;64.74;100236.41;1087927;54;20750;-76
2022/02/01 04:12:29;;;;;;;14.85;3.60;;;;;;;4.02;64.35;100225.97;1087727;54;20038;-75
2022/02/01 04:13:33;;;;;;;13.52;3.90;;;;;;;4.04;64.74;100228.53;1087714;54;20086;-75
2022/02/01 04:14:36;;;;;;;14.95;3.10;;;;;;;4.10;64.63;100225.50;1087913;54;20034;-75
2022/02/01 04:15:40;;;;;;;18.30;3.40;;;;;;;4.01;64.65;100228.72;1087793;54;20019;-75
2022/02/01 04:16:41;;;;;;;14.88;3.50;;;;;;;4.00;64.64;100230.53;1087906;54;20019;-75
2022/02/01 04:17:46;;;;;;;13.05;3.20;;;;;;;3.94;64.38;100236.19;1087845;54;20057;-75
2022/02/01 04:18:47;;;;;;;15.95;4.43;;;;;;;4.03;64.55;100248.00;1087913;54;20071;-74
2022/02/01 04:19:52;;;;;;;19.45;3.97;;;;;;;3.81;64.17;100241.41;1087893;54;20046;-75
2022/02/01 04:20:54;;;;;;;17.52;3.60;;;;;;;3.98;64.41;100232.44;1087910;54;20062;-74
2022/02/01 04:22:01;;;;;;;15.35;3.28;;;;;;;4.05;64.42;100243.47;1087834;54;20037;-75
2022/02/01 04:23:03;;;;;;;13.60;4.85;;;;;;;3.97;64.46;100240.47;1089040;39;20694;-75
2022/02/01 04:24:07;;;;;;;13.00;3.45;;;;;;;4.00;64.66;100241.13;1087880;54;20119;-74
2022/02/01 04:25:09;;;;;;;17.13;3.72;;;;;;;3.89;64.76;100255.00;1087861;54;20293;-74
2022/02/01 04:26:13;;;;;;;16.67;3.40;;;;;;;3.85;64.25;100235.00;1087707;54;20031;-76
2022/02/01 04:27:29;;;;;;;14.52;3.38;;;;;;;3.83;64.12;100238.66;1087711;54;20030;-74
2022/02/01 04:28:36;;;;;;;16.80;4.18;;;;;;;3.97;64.01;100240.47;1087683;54;20034;-75
2022/02/01 04:29:41;;;;;;;14.43;3.00;;;;;;;4.02;64.27;100243.66;1087823;54;20038;-75
2022/02/01 04:30:46;;;;;;;14.57;4.25;;;;;;;3.97;64.03;100237.81;1087872;54;20038;-74
2022/02/01 04:31:47;;;;;;;14.45;3.28;;;;;;;3.99;64.12;100243.84;1087885;54;20042;-75
2022/02/01 04:32:53;;;;;;;20.73;3.65;;;;;;;3.91;64.01;100239.06;1087839;54;20041;-75
2022/02/01 04:33:55;;;;;;;15.65;4.22;;;;;;;3.95;63.65;100245.00;1087863;54;20334;-75
2022/02/01 04:34:59;;;;;;;15.90;3.47;;;;;;;3.97;64.34;100235.19;1087918;54;20090;-75
2022/02/01 04:36:01;;;;;;;18.85;4.13;;;;;;;3.92;64.48;100248.66;1088454;46;20063;-75
2022/02/01 04:37:05;;;;;;;18.10;4.07;;;;;;;3.95;64.35;100247.66;1087803;54;20082;-75
2022/02/01 04:38:07;;;;;;;14.82;3.40;;;;;;;3.84;64.36;100249.16;1087872;54;20034;-75
2022/02/01 04:39:11;;;;;;;19.08;4.80;;;;;;;3.84;64.43;100250.94;1087790;54;20031;-75
2022/02/01 04:40:17;;;;;;;12.52;3.83;;;;;;;3.88;64.17;100253.31;1087835;54;20038;-75
2022/02/01 04:41:22;;;;;;;17.33;4.10;;;;;;;3.95;64.30;100250.28;1087905;54;20052;-75
2022/02/01 04:42:24;;;;;;;14.55;3.95;;;;;;;3.82;64.03;100235.19;1087804;54;20039;-75
2022/02/01 04:43:28;;;;;;;18.85;4.63;;;;;;;3.84;64.36;100246.53;1087862;54;20042;-75
2022/02/01 04:44:33;;;;;;;17.17;3.90;;;;;;;3.89;64.42;100249.72;1087598;54;20041;-75
2022/02/01 04:45:37;;;;;;;10.88;2.95;;;;;;;3.83;64.43;100243.97;1087846;54;20803;-76
2022/02/01 04:46:39;;;;;;;19.13;3.38;;;;;;;3.89;64.18;100244.44;1088113;39;20647;-76
2022/02/01 04:47:45;;;;;;;14.75;3.20;;;;;;;3.94;64.12;100245.94;1087770;54;20776;-75
2022/02/01 04:48:47;;;;;;;16.33;3.63;;;;;;;3.95;64.09;100251.13;1087894;54;20686;-76
2022/02/01 04:49:53;;;;;;;17.58;3.35;;;;;;;3.81;64.19;100244.06;1087408;54;20027;-75
2022/02/01 04:50:57;;;;;;;15.88;3.50;;;;;;;3.82;64.52;100242.28;1087886;54;20038;-75
2022/02/01 04:51:58;;;;;;;16.60;3.33;;;;;;;3.80;64.43;100239.72;1087814;54;20038;-75
2022/02/01 04:53:03;;;;;;;15.85;4.07;;;;;;;3.79;64.36;100240.66;1087823;54;20030;-75
2022/02/01 04:54:05;;;;;;;17.08;4.20;;;;;;;3.70;64.23;100242.09;1087805;54;20053;-75
2022/02/01 04:55:10;;;;;;;14.30;3.42;;;;;;;3.70;64.56;100249.16;1087829;54;20030;-74
2022/02/01 04:56:13;;;;;;;18.00;3.88;;;;;;;3.73;64.29;100255.13;1087765;54;20018;-75
2022/02/01 04:57:18;;;;;;;20.63;3.72;;;;;;;3.70;64.43;100265.91;1087780;54;20030;-74
2022/02/01 04:58:20;;;;;;;13.60;2.90;;;;;;;3.81;64.25;100259.94;1087841;54;20034;-75
2022/02/01 04:59:24;;;;;;;17.58;4.07;;;;;;;3.71;64.32;100264.09;1094486;39;20684;-75
2022/02/01 05:00:30;;;;;;;18.27;3.55;;;;;;;3.81;64.18;100273.16;1087528;54;20036;-74
2022/02/01 05:01:37;;;;;;;12.80;2.72;;;;;;;3.92;64.27;100276.94;1087832;54;20058;-76
2022/02/01 05:02:39;;;;;;;12.75;3.05;;;;;;;3.87;64.29;100287.81;1087976;47;20761;-74
2022/02/01 05:03:43;;;;;;;10.90;2.95;;;;;;;3.94;64.06;100283.81;1088082;46;20041;-75
2022/02/01 05:04:45;;;;;;;19.55;3.65;;;;;;;3.81;64.29;100288.19;1087906;54;20035;-76
2022/02/01 05:05:50;;;;;;;17.00;3.50;;;;;;;3.97;64.31;100285.44;1088829;46;20027;-75
2022/02/01 05:06:54;;;;;;;14.30;3.15;;;;;;;3.94;64.50;100290.91;1087841;54;20041;-75
2022/02/01 05:08:00;;;;;;;12.93;3.15;;;;;;;3.95;64.16;100287.34;1089593;46;20086;-75
2022/02/01 05:09:02;;;;;;;17.15;3.65;;;;;;;3.95;64.27;100288.16;1087782;54;20034;-75
2022/02/01 05:10:08;;;;;;;13.63;2.70;;;;;;;3.99;64.24;100289.69;1089199;46;20033;-75
2022/02/01 05:11:12;;;;;;;17.20;3.60;;;;;;;3.95;64.22;100292.63;1087767;54;20042;-74
2022/02/01 05:12:15;;;;;;;12.70;3.42;;;;;;;3.93;64.14;100290.06;1087703;54;20038;-77
2022/02/01 05:14:00;;;;;;;14.45;2.75;;;;;;;4.00;64.38;100295.81;1087701;54;20045;-75
2022/02/01 05:14:49;;;;;;;12.82;3.08;;;;;;;3.99;64.23;100299.41;1087774;54;20059;-75
2022/02/01 05:16:02;;;;;;;10.98;2.92;;;;;;;3.94;64.13;100302.34;1087688;54;20058;-75
2022/02/01 05:17:05;;;;;;;13.02;2.88;;;;;;;3.99;64.34;100305.56;1087635;54;20041;-75
2022/02/01 05:18:14;;;;;;;21.02;3.75;;;;;;;3.84;64.58;100301.19;1087740;54;20025;-75
2022/02/01 05:19:23;;;;;;;16.63;3.17;;;;;;;3.98;64.46;100310.94;1088451;39;20665;-76
2022/02/01 05:20:42;;;;;;;16.45;4.18;;;;;;;3.84;64.34;100310.00;1087848;54;20054;-76
2022/02/01 05:21:45;;;;;;;19.20;3.15;;;;;;;3.79;64.69;100311.22;1087804;54;20800;-76
2022/02/01 05:22:50;;;;;;;11.80;2.92;;;;;;;3.93;64.43;100323.59;1087762;54;20027;-76
2022/02/01 05:23:53;;;;;;;10.48;2.60;;;;;;;4.04;64.43;100321.16;1087777;54;20038;-75
2022/02/01 05:24:57;;;;;;;17.40;3.42;;;;;;;3.88;64.85;100322.06;1087861;54;20034;-75
2022/02/01 05:26:00;;;;;;;11.40;2.90;;;;;;;4.04;64.55;100321.16;1087845;54;20037;-75
2022/02/01 05:27:05;;;;;;;18.33;3.10;;;;;;;3.87;64.83;100322.19;1087768;54;20015;-75
2022/02/01 05:28:10;;;;;;;16.25;3.17;;;;;;;3.74;64.87;100330.03;1087851;54;20018;-75
2022/02/01 05:29:11;;;;;;;18.50;3.72;;;;;;;3.71;65.15;100323.13;1087802;54;20038;-76
2022/02/01 05:30:16;;;;;;;18.65;3.90;;;;;;;3.69;65.37;100318.88;1087830;54;20030;-76
2022/02/01 05:31:22;;;;;;;16.83;3.50;;;;;;;3.63;65.64;100321.91;1087836;54;20041;-75
2022/02/01 05:32:27;;;;;;;17.73;3.58;;;;;;;3.68;65.32;100319.84;1087410;54;20034;-75
2022/02/01 05:33:29;;;;;;;16.98;3.63;;;;;;;3.66;65.65;100324.38;1087833;54;20038;-75
2022/02/01 05:34:33;;;;;;;14.30;3.35;;;;;;;3.62;65.73;100325.47;1087768;54;20041;-75
2022/02/01 05:35:35;;;;;;;12.30;3.63;;;;;;;3.61;65.99;100324.63;1087815;54;20038;-75
2022/02/01 05:36:45;;;;;;;17.42;3.80;;;;;;;3.75;65.78;100324.63;1087801;54;20078;-75
2022/02/01 05:37:47;;;;;;;;;;;;;;;3.71;66.02;100322.28;1087859;54;20094;-75
2022/02/01 05:38:53;;;;;;;16.75;3.50;;;;;;;3.63;66.09;100328.06;1087824;54;19999;-75
2022/02/01 05:39:56;;;;;;;16.73;3.58;;;;;;;3.79;65.94;100329.75;1087748;54;20044;-76
2022/02/01 05:41:01;;;;;;;12.52;2.90;;;;;;;3.91;65.72;100329.00;1089500;39;20248;-75
2022/02/01 05:42:03;;;;;;;18.13;3.58;;;;;;;3.80;66.23;100324.34;1087812;54;20095;-75
2022/02/01 05:43:11;;;;;;;16.77;3.42;;;;;;;3.59;66.72;100322.06;1088874;39;20649;-76
2022/02/01 05:44:13;;;;;;;13.13;3.63;;;;;;;3.64;66.85;100324.44;1087756;54;20034;-75
2022/02/01 05:45:17;;;;;;;16.00;4.05;;;;;;;3.79;66.47;100312.06;1087808;54;20057;-75
2022/02/01 05:46:24;;;;;;;17.67;4.55;;;;;;;3.61;67.12;100302.63;1090218;39;20602;-76
2022/02/01 05:47:27;;;;;;;15.32;3.67;;;;;;;3.59;67.03;100308.84;1087774;54;20019;-75
2022/02/01 05:48:31;;;;;;;14.75;3.28;;;;;;;3.58;67.35;100299.25;1087468;54;20035;-75
2022/02/01 05:49:33;;;;;;;12.95;3.40;;;;;;;3.56;67.06;100306.41;1087799;54;20090;-75
2022/02/01 05:50:37;;;;;;;18.02;4.00;;;;;;;3.56;67.13;100305.53;1088379;46;20984;-75
2022/02/01 05:51:38;;;;;;;18.88;4.05;;;;;;;3.65;67.17;100304.16;1087772;54;20038;-76
2022/02/01 05:52:43;;;;;;;17.83;3.13;;;;;;;3.77;67.03;100303.41;1087747;54;20037;-75
2022/02/01 05:53:44;;;;;;;18.88;3.45;;;;;;;3.76;66.68;100304.34;1087765;54;20030;-76
2022/02/01 05:54:48;;;;;;;15.30;3.33;;;;;;;3.73;66.82;100308.00;1089735;46;20014;-75
2022/02/01 05:55:50;;;;;;;13.43;3.55;;;;;;;3.78;66.61;100307.72;1088608;46;20041;-75
2022/02/01 05:56:55;;;;;;;14.35;2.95;;;;;;;3.77;66.45;100303.41;1088408;46;20038;-75
2022/02/01 05:57:59;;;;;;;12.63;3.25;;;;;;;3.92;66.28;100306.03;1088194;46;20043;-75
2022/02/01 05:59:00;;;;;;;16.27;3.33;;;;;;;3.78;66.67;100305.06;1088322;46;20031;-75
2022/02/01 06:00:06;;;;;;;16.92;4.32;;;;;;;3.82;66.39;100311.88;1087775;54;20038;-75